Time;durP1;ratioP1;P1;durP2;ratioP2;P2;SDS_P1;SDS_P2;PMS_P1;PMS_P2;Temp;Humidity;BMP_temperature;BMP_pressure;BME280_temperature;BME280_humidity;BME280_pressure;Samples;Min_cycle;Max_cycle;Signal;HPM_P1;HPM_P2
2021/01/25 00:00:34;;;;;;;10.98;5.10;;;-0.40;88.40;;;;;;5089987;28;20027;-63
2021/01/25 00:03:00;;;;;;;8.43;4.20;;;-0.40;87.40;;;;;;5091969;28;20609;-62
2021/01/25 00:05:26;;;;;;;9.45;4.30;;;-0.50;86.90;;;;;;5092522;28;20028;-62
2021/01/25 00:07:51;;;;;;;7.72;4.30;;;-0.50;86.60;;;;;;5091705;28;20445;-62
2021/01/25 00:10:17;;;;;;;7.45;4.20;;;-0.50;86.70;;;;;;5092623;28;20358;-63
2021/01/25 00:12:43;;;;;;;9.23;3.90;;;-0.50;86.10;;;;;;5091327;28;20054;-64
2021/01/25 00:15:09;;;;;;;6.65;3.53;;;-0.50;85.70;;;;;;5092130;28;20048;-62
2021/01/25 00:17:34;;;;;;;6.78;3.45;;;-0.40;84.60;;;;;;5092185;28;20402;-62
2021/01/25 00:20:00;;;;;;;5.88;3.33;;;-0.40;82.90;;;;;;5091301;28;20030;-62
2021/01/25 00:22:27;;;;;;;6.65;3.70;;;-0.40;83.00;;;;;;5091956;28;20024;-61
2021/01/25 00:24:53;;;;;;;7.72;3.45;;;-0.40;83.30;;;;;;5091463;28;20032;-61
2021/01/25 00:27:19;;;;;;;7.65;3.67;;;-0.40;83.10;;;;;;5091876;28;20028;-62
2021/01/25 00:29:45;;;;;;;7.07;3.05;;;-0.40;83.50;;;;;;5091196;28;20020;-65
2021/01/25 00:32:10;;;;;;;8.63;3.72;;;-0.40;83.30;;;;;;5091119;28;20436;-64
2021/01/25 00:34:38;;;;;;;7.18;3.25;;;-0.40;83.30;;;;;;5091682;28;20145;-63
2021/01/25 00:37:03;;;;;;;8.02;3.80;;;-0.40;83.60;;;;;;5089632;28;20036;-62
2021/01/25 00:39:29;;;;;;;10.02;3.60;;;-0.50;84.00;;;;;;5091870;28;20031;-62
2021/01/25 00:41:55;;;;;;;5.60;3.53;;;-0.50;84.00;;;;;;5091126;28;20099;-62
2021/01/25 00:44:20;;;;;;;7.20;3.70;;;-0.60;84.40;;;;;;5090534;28;20030;-62
2021/01/25 00:46:46;;;;;;;6.32;3.35;;;-0.60;83.70;;;;;;5090996;28;20459;-62
2021/01/25 00:49:11;;;;;;;8.02;3.40;;;-0.60;84.00;;;;;;5091567;28;20020;-62
2021/01/25 00:51:37;;;;;;;8.02;3.40;;;-0.60;84.40;;;;;;5092154;28;20475;-62
2021/01/25 00:54:03;;;;;;;5.60;3.13;;;-0.60;84.20;;;;;;5092199;28;20028;-62
2021/01/25 00:56:28;;;;;;;8.98;3.30;;;-0.50;83.80;;;;;;5092909;28;20028;-61
2021/01/25 00:58:54;;;;;;;5.90;2.92;;;-0.50;83.50;;;;;;5091883;28;20039;-61
2021/01/25 01:01:20;;;;;;;6.70;3.22;;;-0.40;83.10;;;;;;5093099;28;20025;-62
2021/01/25 01:03:45;;;;;;;7.85;3.20;;;-0.40;82.90;;;;;;5092158;28;20165;-62
2021/01/25 01:06:11;;;;;;;7.32;3.17;;;-0.40;82.20;;;;;;5092784;28;20095;-62
2021/01/25 01:08:37;;;;;;;5.88;2.83;;;-0.40;82.20;;;;;;5092623;28;20115;-62
2021/01/25 01:11:02;;;;;;;8.45;2.75;;;-0.40;81.40;;;;;;5091819;28;20521;-62
2021/01/25 01:13:28;;;;;;;5.75;2.58;;;-0.30;81.20;;;;;;5092368;28;20046;-62
2021/01/25 01:15:53;;;;;;;4.28;2.53;;;-0.30;80.40;;;;;;5091826;28;20059;-62
2021/01/25 01:18:19;;;;;;;5.60;2.75;;;-0.20;80.80;;;;;;5092458;28;20047;-63
2021/01/25 01:20:45;;;;;;;6.05;2.75;;;-0.20;80.30;;;;;;5091645;28;20131;-63
2021/01/25 01:23:10;;;;;;;5.80;2.88;;;-0.20;80.70;;;;;;5092318;28;20532;-62
2021/01/25 01:25:36;;;;;;;5.60;3.08;;;-0.20;80.10;;;;;;5092139;28;20070;-62
2021/01/25 01:28:02;;;;;;;6.15;3.03;;;-0.20;80.10;;;;;;5091824;28;20100;-62
2021/01/25 01:30:27;;;;;;;4.38;2.50;;;-0.20;80.70;;;;;;5092159;28;20507;-62
2021/01/25 01:32:53;;;;;;;6.72;2.67;;;-0.20;81.00;;;;;;5091121;28;20117;-62
2021/01/25 01:35:19;;;;;;;6.78;2.42;;;-0.20;81.30;;;;;;5091924;28;20052;-63
2021/01/25 01:37:45;;;;;;;5.57;2.88;;;-0.20;81.90;;;;;;5091236;28;20020;-65
2021/01/25 01:40:13;;;;;;;5.70;2.60;;;-0.30;81.90;;;;;;5092132;28;20133;-62
2021/01/25 01:42:39;;;;;;;5.88;2.50;;;-0.40;82.30;;;;;;5091974;28;20085;-63
2021/01/25 01:45:07;;;;;;;7.93;3.22;;;-0.50;82.70;;;;;;5090785;28;20056;-62
2021/01/25 01:47:34;;;;;;;5.15;2.35;;;-0.60;83.40;;;;;;5091741;28;20024;-62
2021/01/25 01:50:01;;;;;;;7.35;2.67;;;-0.70;84.00;;;;;;5091073;28;20069;-62
2021/01/25 01:52:27;;;;;;;7.13;2.72;;;-0.80;84.50;;;;;;5091913;28;20076;-62
2021/01/25 01:54:59;;;;;;;5.28;2.80;;;-0.90;84.70;;;;;;5091113;28;20036;-62
2021/01/25 01:57:25;;;;;;;6.28;3.13;;;-0.90;85.60;;;;;;5091668;28;20118;-62
2021/01/25 01:59:51;;;;;;;6.50;2.63;;;-0.90;85.40;;;;;;5091432;28;20031;-63
2021/01/25 02:02:17;;;;;;;4.95;2.70;;;-0.90;85.70;;;;;;5091110;28;20036;-62
2021/01/25 02:04:44;;;;;;;6.43;3.00;;;-0.90;86.30;;;;;;5092162;28;20031;-65
2021/01/25 02:07:11;;;;;;;4.18;2.55;;;-1.00;86.90;;;;;;5091097;28;20028;-62
2021/01/25 02:09:40;;;;;;;3.83;2.53;;;-0.90;86.80;;;;;;5091554;28;20101;-62
2021/01/25 02:12:09;;;;;;;4.20;2.33;;;-1.00;87.20;;;;;;5091058;28;20028;-62
2021/01/25 02:14:35;;;;;;;6.50;2.83;;;-1.00;88.10;;;;;;5090374;28;20480;-62
2021/01/25 02:17:01;;;;;;;5.15;2.85;;;-1.10;88.70;;;;;;5090913;28;20028;-63
2021/01/25 02:19:37;;;;;;;3.60;2.15;;;-1.10;89.70;;;;;;5091447;28;20365;-62
2021/01/25 02:22:12;;;;;;;5.53;2.70;;;-1.10;90.40;;;;;;5090450;28;20500;-63
2021/01/25 02:25:14;;;;;;;6.68;2.90;;;-1.10;91.00;;;;;;5091445;28;20450;-62
2021/01/25 02:27:44;;;;;;;5.20;2.72;;;-1.10;91.70;;;;;;5077986;28;20040;-62
2021/01/25 02:30:12;;;;;;;5.80;2.88;;;-1.10;92.20;;;;;;5091114;28;20081;-62
2021/01/25 02:32:39;;;;;;;5.50;2.83;;;-1.10;92.70;;;;;;5090966;28;20509;-62
2021/01/25 02:35:09;;;;;;;7.05;2.72;;;-1.10;93.10;;;;;;5090972;28;20092;-62
2021/01/25 02:37:36;;;;;;;5.68;2.50;;;-1.00;93.20;;;;;;5091092;28;20369;-62
2021/01/25 02:40:04;;;;;;;7.22;3.33;;;-1.00;93.10;;;;;;5090965;28;20111;-62
2021/01/25 02:42:32;;;;;;;8.55;3.08;;;-1.00;93.20;;;;;;5091256;28;20028;-62
2021/01/25 02:44:58;;;;;;;8.43;3.83;;;-1.00;93.70;;;;;;5089444;28;20030;-62
2021/01/25 02:47:25;;;;;;;8.75;3.47;;;-0.90;93.80;;;;;;5091523;28;20081;-62
2021/01/25 02:49:51;;;;;;;4.78;2.55;;;-0.80;93.90;;;;;;5090715;28;20389;-62
2021/01/25 02:52:17;;;;;;;3.50;2.47;;;-0.80;94.00;;;;;;5089999;28;20137;-63
2021/01/25 02:54:44;;;;;;;5.70;2.58;;;-0.70;94.00;;;;;;5093067;28;20039;-62
2021/01/25 02:57:13;;;;;;;7.88;2.70;;;-0.70;93.50;;;;;;5094724;28;20031;-63
2021/01/25 02:59:40;;;;;;;7.68;2.85;;;-0.70;93.30;;;;;;5095275;28;20042;-62
2021/01/25 03:02:06;;;;;;;5.43;2.30;;;-0.70;93.40;;;;;;5094358;28;20024;-62
2021/01/25 03:04:34;;;;;;;9.15;3.00;;;-0.60;93.20;;;;;;5094795;28;20031;-62
2021/01/25 03:07:01;;;;;;;4.82;2.38;;;-0.60;93.10;;;;;;5094092;28;20024;-63
2021/01/25 03:09:27;;;;;;;4.55;2.30;;;-0.60;92.70;;;;;;5095117;28;20024;-62
2021/01/25 03:11:55;;;;;;;3.13;2.00;;;-0.50;92.20;;;;;;5094176;28;20035;-62
2021/01/25 03:14:20;;;;;;;5.75;2.38;;;-0.50;92.40;;;;;;5094555;28;20114;-62
2021/01/25 03:16:46;;;;;;;5.40;2.72;;;-0.40;93.00;;;;;;5094780;28;20160;-65
2021/01/25 03:19:12;;;;;;;4.95;2.63;;;-0.40;93.70;;;;;;5094275;28;20151;-62
2021/01/25 03:21:46;;;;;;;9.15;3.28;;;-0.40;94.20;;;;;;5094493;28;20016;-63
2021/01/25 03:24:12;;;;;;;5.95;3.28;;;-0.40;95.00;;;;;;5094378;28;20035;-63
2021/01/25 03:26:37;;;;;;;5.38;2.85;;;-0.40;96.40;;;;;;5094882;28;20024;-62
2021/01/25 03:29:03;;;;;;;5.38;2.80;;;-0.40;97.60;;;;;;5093719;28;20463;-62
2021/01/25 03:31:29;;;;;;;5.13;2.90;;;-0.50;98.90;;;;;;5094364;28;20058;-62
2021/01/25 03:33:54;;;;;;;5.13;3.17;;;-0.50;99.90;;;;;;5093560;28;20032;-62
2021/01/25 03:36:20;;;;;;;3.40;2.83;;;-0.50;99.90;;;;;;5094873;28;20035;-62
2021/01/25 03:38:46;;;;;;;6.15;3.60;;;-0.60;99.90;;;;;;5094438;28;20064;-65
2021/01/25 03:41:12;;;;;;;7.18;4.05;;;-0.60;99.90;;;;;;5093793;28;20054;-62
2021/01/25 03:43:37;;;;;;;5.88;3.20;;;-0.70;99.90;;;;;;5094434;28;20038;-62
2021/01/25 03:46:03;;;;;;;8.98;3.92;;;-0.70;99.90;;;;;;5093612;28;20028;-63
2021/01/25 03:48:28;;;;;;;9.18;4.32;;;-0.80;99.90;;;;;;5094243;28;20461;-62
2021/01/25 03:50:54;;;;;;;8.43;4.30;;;-0.80;99.90;;;;;;5093108;28;20465;-62
2021/01/25 03:53:19;;;;;;;7.88;4.50;;;-0.80;99.90;;;;;;5093687;28;20024;-62
2021/01/25 03:55:48;;;;;;;8.77;4.60;;;-0.90;99.90;;;;;;5094398;28;20028;-64
2021/01/25 03:58:14;;;;;;;9.20;4.50;;;-0.90;99.90;;;;;;5093783;28;20052;-62
2021/01/25 04:00:39;;;;;;;7.05;4.22;;;-0.90;99.90;;;;;;5094137;28;20067;-62
2021/01/25 04:03:05;;;;;;;9.27;4.82;;;-0.90;99.90;;;;;;5092426;28;20770;-63
2021/01/25 04:05:31;;;;;;;8.98;4.60;;;-0.90;99.90;;;;;;5088868;28;20024;-63
2021/01/25 04:07:56;;;;;;;8.13;4.55;;;-0.90;99.90;;;;;;5091421;28;20016;-62
2021/01/25 04:10:22;;;;;;;8.77;5.78;;;-0.90;99.90;;;;;;5092408;28;20380;-62
2021/01/25 04:12:48;;;;;;;8.77;5.38;;;-0.80;99.90;;;;;;5091785;28;20185;-65
2021/01/25 04:15:14;;;;;;;9.55;5.32;;;-0.80;99.90;;;;;;5092145;28;20028;-63
2021/01/25 04:17:39;;;;;;;7.22;5.47;;;-0.80;99.90;;;;;;5092420;28;20024;-62
2021/01/25 04:20:05;;;;;;;8.48;5.47;;;-0.80;99.90;;;;;;5091595;28;20396;-63
2021/01/25 04:22:31;;;;;;;7.55;5.15;;;-0.80;99.90;;;;;;5088371;28;20031;-62
2021/01/25 04:24:57;;;;;;;9.63;6.22;;;-0.90;99.90;;;;;;5091348;28;20042;-63
2021/01/25 04:27:23;;;;;;;13.45;6.45;;;-0.90;99.90;;;;;;5092329;28;20023;-62
2021/01/25 04:29:49;;;;;;;9.48;5.22;;;-0.90;99.90;;;;;;5092258;28;20107;-65
2021/01/25 04:32:14;;;;;;;10.13;5.97;;;-0.90;99.90;;;;;;5092994;28;20048;-62
2021/01/25 04:34:40;;;;;;;9.27;6.07;;;-0.90;99.90;;;;;;5093200;28;20464;-62
2021/01/25 04:37:06;;;;;;;9.63;6.85;;;-0.90;99.90;;;;;;5092429;28;20943;-62
2021/01/25 04:39:31;;;;;;;9.18;6.10;;;-0.90;99.90;;;;;;5093085;28;20027;-62
2021/01/25 04:41:57;;;;;;;9.02;6.50;;;-0.90;99.90;;;;;;5090539;28;20035;-63
2021/01/25 04:44:23;;;;;;;8.02;6.50;;;-1.00;99.90;;;;;;5091641;28;20095;-62
2021/01/25 04:46:49;;;;;;;9.48;6.57;;;-1.00;99.90;;;;;;5091342;28;20057;-64
2021/01/25 04:49:16;;;;;;;10.45;7.55;;;-1.00;99.90;;;;;;5091436;28;20527;-62
2021/01/25 04:51:43;;;;;;;9.70;7.25;;;-1.10;99.90;;;;;;5091661;28;20492;-62
2021/01/25 04:54:09;;;;;;;10.10;6.70;;;-1.10;99.90;;;;;;5090138;28;20093;-62
2021/01/25 04:56:36;;;;;;;11.73;7.05;;;-1.10;99.90;;;;;;5091449;28;20112;-62
2021/01/25 04:59:03;;;;;;;11.00;6.70;;;-1.00;99.90;;;;;;5090635;28;20024;-63
2021/01/25 05:01:28;;;;;;;17.00;7.95;;;-1.10;99.90;;;;;;5091294;28;20399;-63
2021/01/25 05:03:54;;;;;;;12.52;7.63;;;-1.10;99.90;;;;;;5090583;28;20037;-63
2021/01/25 05:06:20;;;;;;;13.50;7.55;;;-1.10;99.90;;;;;;5091579;28;20152;-62
2021/01/25 05:08:46;;;;;;;12.30;7.47;;;-1.10;99.90;;;;;;5091356;28;20465;-65
2021/01/25 05:11:19;;;;;;;14.13;8.15;;;-1.10;99.90;;;;;;5090301;28;20107;-62
2021/01/25 05:13:45;;;;;;;12.43;7.65;;;-1.10;99.90;;;;;;5091371;28;20051;-62
2021/01/25 05:16:30;;;;;;;11.30;7.82;;;-1.10;99.90;;;;;;5090582;28;20040;-62
2021/01/25 05:18:57;;;;;;;12.10;7.32;;;-1.10;99.90;;;;;;5087746;28;20031;-63
2021/01/25 05:21:37;;;;;;;12.40;7.38;;;-1.10;99.90;;;;;;5090065;28;20029;-62
2021/01/25 05:24:07;;;;;;;11.38;7.70;;;-1.10;99.90;;;;;;5088325;28;20032;-62
2021/01/25 05:26:36;;;;;;;14.15;8.32;;;-1.10;99.90;;;;;;5091037;28;20024;-63
2021/01/25 05:29:03;;;;;;;13.27;7.77;;;-1.10;99.90;;;;;;5089825;28;20125;-62
2021/01/25 05:31:29;;;;;;;14.23;8.23;;;-1.10;99.90;;;;;;5090799;28;20035;-62
2021/01/25 05:33:55;;;;;;;14.35;8.45;;;-1.10;99.90;;;;;;5089631;28;20048;-62
2021/01/25 05:36:29;;;;;;;15.60;8.10;;;-1.10;99.90;;;;;;5091034;28;20488;-62
2021/01/25 05:38:54;;;;;;;12.25;8.15;;;-1.10;99.90;;;;;;5087309;28;20064;-62
2021/01/25 05:41:21;;;;;;;11.85;8.30;;;-1.10;99.90;;;;;;5090683;28;20024;-62
2021/01/25 05:43:48;;;;;;;15.32;8.43;;;-1.10;99.90;;;;;;5090338;28;20154;-64
2021/01/25 05:46:15;;;;;;;11.38;8.02;;;-1.10;99.90;;;;;;5090675;28;20031;-62
2021/01/25 05:48:41;;;;;;;15.30;9.48;;;-1.10;99.90;;;;;;5090874;28;20017;-61
2021/01/25 05:51:19;;;;;;;12.35;8.23;;;-1.10;99.90;;;;;;5089986;28;20020;-61
2021/01/25 05:53:46;;;;;;;13.93;9.20;;;-1.10;99.90;;;;;;5089145;28;20028;-61
2021/01/25 05:56:13;;;;;;;12.70;7.82;;;-1.10;99.90;;;;;;5089810;28;20024;-62
2021/01/25 05:58:40;;;;;;;12.40;8.75;;;-1.10;99.90;;;;;;5089148;28;20020;-62
2021/01/25 06:01:07;;;;;;;11.35;8.18;;;-1.10;99.90;;;;;;5089917;28;20036;-62
2021/01/25 06:03:37;;;;;;;14.80;8.75;;;-1.10;99.90;;;;;;5090156;28;20476;-62
2021/01/25 06:06:20;;;;;;;13.52;8.50;;;-1.10;99.90;;;;;;5089974;28;20038;-62
2021/01/25 06:08:49;;;;;;;16.10;9.48;;;-1.00;99.90;;;;;;5088504;28;20032;-62
2021/01/25 06:11:23;;;;;;;14.80;9.50;;;-1.00;99.90;;;;;;5090148;28;20048;-62
2021/01/25 06:14:00;;;;;;;15.30;9.30;;;-1.00;99.90;;;;;;5087797;28;20035;-65
2021/01/25 06:16:28;;;;;;;15.23;10.38;;;-1.00;99.90;;;;;;5088245;28;20032;-62
2021/01/25 06:19:00;;;;;;;17.00;9.98;;;-1.00;99.90;;;;;;5089338;28;20024;-62
2021/01/25 06:21:29;;;;;;;13.23;9.45;;;-1.00;99.90;;;;;;5087992;28;20113;-62
2021/01/25 06:24:01;;;;;;;16.60;10.00;;;-1.00;99.90;;;;;;5089039;28;20103;-62
2021/01/25 06:26:30;;;;;;;17.80;10.75;;;-1.00;99.90;;;;;;5087074;28;20024;-63
2021/01/25 06:29:06;;;;;;;17.98;11.05;;;-1.00;99.90;;;;;;5090159;28;20065;-62
2021/01/25 06:31:36;;;;;;;17.15;10.30;;;-1.00;99.90;;;;;;5092919;28;20028;-62
2021/01/25 06:34:04;;;;;;;15.48;10.70;;;-1.00;99.90;;;;;;5093361;28;20047;-62
2021/01/25 06:36:33;;;;;;;18.30;10.90;;;-1.00;99.90;;;;;;5094119;28;20380;-62
2021/01/25 06:38:59;;;;;;;16.85;10.48;;;-1.00;99.90;;;;;;5093177;28;20032;-62
2021/01/25 06:41:24;;;;;;;16.73;9.50;;;-0.90;99.90;;;;;;5092828;28;20364;-62
2021/01/25 06:43:50;;;;;;;17.98;11.07;;;-0.90;99.90;;;;;;5092010;28;20099;-64
2021/01/25 06:46:21;;;;;;;13.95;9.43;;;-0.80;99.90;;;;;;5094028;28;20477;-64
2021/01/25 06:48:49;;;;;;;16.60;10.18;;;-0.80;99.90;;;;;;5091837;28;20031;-65
2021/01/25 06:51:17;;;;;;;15.20;9.95;;;-0.80;99.90;;;;;;5094772;28;20077;-64
2021/01/25 06:53:43;;;;;;;14.15;9.23;;;-0.70;99.90;;;;;;5094934;28;20542;-61
2021/01/25 06:56:09;;;;;;;15.88;9.43;;;-0.70;99.90;;;;;;5090476;28;20616;-61
2021/01/25 06:58:39;;;;;;;15.25;9.20;;;-0.70;99.90;;;;;;5094201;28;20369;-61
2021/01/25 07:01:07;;;;;;;15.18;9.77;;;-0.70;99.90;;;;;;5093259;28;20036;-66
2021/01/25 07:03:45;;;;;;;18.45;11.02;;;-0.80;99.90;;;;;;5094652;28;20036;-62
2021/01/25 07:06:15;;;;;;;12.65;9.07;;;-0.80;99.90;;;;;;5094975;28;20106;-62
2021/01/25 07:08:52;;;;;;;15.53;9.17;;;-0.80;99.90;;;;;;5093942;28;20043;-62
2021/01/25 07:11:18;;;;;;;15.18;9.10;;;-0.80;99.90;;;;;;5099595;28;20284;-62
2021/01/25 07:13:44;;;;;;;17.92;9.30;;;-0.80;99.90;;;;;;5088683;28;20039;-62
2021/01/25 07:16:11;;;;;;;15.65;9.63;;;-0.80;99.90;;;;;;5092550;28;20020;-62
2021/01/25 07:18:36;;;;;;;17.23;9.60;;;-0.80;99.90;;;;;;5094118;28;20049;-62
2021/01/25 07:21:03;;;;;;;14.00;8.85;;;-0.70;99.90;;;;;;5093281;28;20417;-62
2021/01/25 07:23:31;;;;;;;13.20;8.50;;;-0.80;99.90;;;;;;5094191;28;20141;-62
2021/01/25 07:25:58;;;;;;;15.80;8.77;;;-0.70;99.90;;;;;;5097730;28;20035;-63
2021/01/25 07:28:26;;;;;;;15.13;9.20;;;-0.70;99.90;;;;;;5093752;28;20020;-62
2021/01/25 07:30:52;;;;;;;13.60;8.57;;;-0.70;99.90;;;;;;5091490;28;20038;-65
2021/01/25 07:33:19;;;;;;;15.90;9.02;;;-0.70;99.90;;;;;;5093827;28;20056;-63
2021/01/25 07:35:45;;;;;;;16.73;9.10;;;-0.70;99.90;;;;;;5094264;28;20035;-63
2021/01/25 07:38:11;;;;;;;14.35;8.70;;;-0.60;99.90;;;;;;5093312;28;20574;-63
2021/01/25 07:40:37;;;;;;;13.48;8.38;;;-0.60;99.90;;;;;;5093646;28;20078;-63
2021/01/25 07:43:04;;;;;;;13.88;9.25;;;-0.60;99.90;;;;;;5092584;28;20032;-65
2021/01/25 07:45:30;;;;;;;12.38;8.10;;;-0.60;99.90;;;;;;5093592;28;20473;-63
2021/01/25 07:47:56;;;;;;;18.85;9.00;;;-0.60;99.90;;;;;;5092492;28;20137;-63
2021/01/25 07:50:22;;;;;;;12.93;8.75;;;-0.50;99.90;;;;;;5091830;28;20353;-63
2021/01/25 07:53:01;;;;;;;16.92;9.63;;;-0.50;99.90;;;;;;5093943;28;20043;-63
2021/01/25 07:55:28;;;;;;;13.07;8.38;;;-0.50;99.90;;;;;;5093656;28;20016;-63
2021/01/25 07:58:04;;;;;;;15.45;9.45;;;-0.50;99.90;;;;;;5092891;28;20032;-63
2021/01/25 08:00:30;;;;;;;15.40;9.20;;;-0.40;99.90;;;;;;5093294;28;20506;-64
2021/01/25 08:03:14;;;;;;;12.68;8.02;;;-0.40;99.90;;;;;;5092686;28;20032;-65
2021/01/25 08:05:40;;;;;;;18.00;8.57;;;-0.40;99.90;;;;;;5093277;28;20024;-62
2021/01/25 08:08:10;;;;;;;14.70;8.57;;;-0.40;99.90;;;;;;5093099;28;20036;-63
2021/01/25 08:10:37;;;;;;;16.13;9.07;;;-0.40;99.90;;;;;;5086020;28;20084;-63
2021/01/25 08:13:24;;;;;;;20.48;9.85;;;-0.40;99.90;;;;;;5091050;28;20020;-65
2021/01/25 08:16:06;;;;;;;15.48;8.40;;;-0.40;99.90;;;;;;5091895;28;20097;-65
2021/01/25 08:19:02;;;;;;;14.65;9.90;;;-0.30;99.90;;;;;;5078771;28;20023;-63
2021/01/25 08:21:34;;;;;;;20.95;8.40;;;-0.30;99.90;;;;;;5092005;28;20060;-63
2021/01/25 08:24:02;;;;;;;13.95;8.68;;;-0.30;99.90;;;;;;5091228;28;20105;-63
2021/01/25 08:26:30;;;;;;;16.83;8.50;;;-0.30;99.90;;;;;;5093052;28;20028;-63
2021/01/25 08:29:00;;;;;;;15.50;8.38;;;-0.30;99.90;;;;;;5091819;28;20020;-63
2021/01/25 08:31:46;;;;;;;22.05;9.73;;;-0.20;99.90;;;;;;5092855;28;20034;-62
2021/01/25 08:34:24;;;;;;;20.40;9.35;;;-0.20;99.90;;;;;;5091534;28;20040;-63
2021/01/25 08:37:08;;;;;;;14.05;8.85;;;-0.10;99.90;;;;;;5092741;28;20026;-63
2021/01/25 08:39:41;;;;;;;14.88;8.68;;;-0.10;99.90;;;;;;5092618;28;20020;-62
2021/01/25 08:42:17;;;;;;;15.40;8.57;;;0.00;99.90;;;;;;5086587;28;20016;-68
2021/01/25 08:45:05;;;;;;;17.20;9.00;;;0.10;99.90;;;;;;5092284;28;20028;-64
2021/01/25 08:47:32;;;;;;;12.68;7.88;;;0.20;99.90;;;;;;5093424;28;20112;-62
2021/01/25 08:49:59;;;;;;;18.23;8.57;;;0.30;99.90;;;;;;5089488;28;20062;-62
2021/01/25 08:52:28;;;;;;;13.02;7.47;;;0.30;99.90;;;;;;5091950;28;20032;-61
2021/01/25 08:55:12;;;;;;;15.88;7.25;;;0.40;99.90;;;;;;5091628;28;20378;-71
2021/01/25 08:57:42;;;;;;;14.38;7.53;;;0.50;99.90;;;;;;5092419;28;20024;-66
2021/01/25 09:00:17;;;;;;;14.63;7.05;;;0.60;99.90;;;;;;5091580;28;20024;-69
2021/01/25 09:02:45;;;;;;;12.05;7.07;;;0.60;99.90;;;;;;5092677;28;20063;-68
2021/01/25 09:05:13;;;;;;;13.25;7.28;;;0.60;99.90;;;;;;5091335;28;20039;-68
2021/01/25 09:07:39;;;;;;;13.35;7.30;;;0.70;99.90;;;;;;5092280;28;20024;-67
2021/01/25 09:10:06;;;;;;;15.98;8.10;;;0.70;99.90;;;;;;5090748;28;20043;-67
2021/01/25 09:12:32;;;;;;;10.95;7.55;;;0.70;99.90;;;;;;5103942;28;20840;-67
2021/01/25 09:14:58;;;;;;;10.55;6.82;;;0.80;99.90;;;;;;5090438;28;20123;-70
2021/01/25 09:17:24;;;;;;;13.27;7.47;;;0.80;99.90;;;;;;5091802;28;20067;-68
2021/01/25 09:19:50;;;;;;;12.30;7.53;;;0.80;99.90;;;;;;5092012;28;20457;-69
2021/01/25 09:22:16;;;;;;;16.08;9.48;;;0.80;99.90;;;;;;5090980;28;20020;-68
2021/01/25 09:24:43;;;;;;;16.98;10.02;;;0.90;99.90;;;;;;5092128;28;20032;-67
2021/01/25 09:27:09;;;;;;;15.05;9.63;;;1.00;99.90;;;;;;5091216;28;20027;-63
2021/01/25 09:29:36;;;;;;;14.32;8.07;;;1.00;99.90;;;;;;5088713;28;20024;-62
2021/01/25 09:32:02;;;;;;;17.40;8.98;;;1.10;99.90;;;;;;5090748;28;20035;-62
2021/01/25 09:34:28;;;;;;;18.42;10.07;;;1.20;99.90;;;;;;5092390;28;20046;-61
2021/01/25 09:36:53;;;;;;;18.25;9.77;;;1.20;99.90;;;;;;5099129;28;20026;-64
2021/01/25 09:39:19;;;;;;;19.42;9.48;;;1.20;99.90;;;;;;5090967;28;20035;-62
2021/01/25 09:41:46;;;;;;;19.77;10.07;;;1.20;99.90;;;;;;5089538;28;20102;-63
2021/01/25 09:44:13;;;;;;;15.30;9.68;;;1.20;99.90;;;;;;5088740;28;20078;-63
2021/01/25 09:46:41;;;;;;;19.38;10.85;;;1.20;99.90;;;;;;5091416;28;20073;-62
2021/01/25 09:49:10;;;;;;;18.52;10.73;;;1.10;99.90;;;;;;5092433;28;20031;-62
2021/01/25 09:51:37;;;;;;;17.27;10.55;;;1.10;99.90;;;;;;5093881;28;20039;-69
2021/01/25 09:54:03;;;;;;;18.90;10.32;;;1.10;99.90;;;;;;5090587;28;20148;-63
2021/01/25 09:56:29;;;;;;;17.40;10.80;;;1.10;99.90;;;;;;5091580;28;20398;-65
2021/01/25 09:58:55;;;;;;;18.23;11.82;;;1.20;99.90;;;;;;5091125;28;20137;-77
2021/01/25 10:01:22;;;;;;;17.23;10.93;;;1.20;99.90;;;;;;5090924;28;20111;-62
2021/01/25 10:03:47;;;;;;;18.98;11.63;;;1.20;99.90;;;;;;5090134;28;20477;-63
2021/01/25 10:06:13;;;;;;;17.42;11.90;;;1.30;99.90;;;;;;5089037;28;20027;-63
2021/01/25 10:08:39;;;;;;;17.73;11.60;;;1.30;99.90;;;;;;5091229;28;20060;-63
2021/01/25 10:11:06;;;;;;;20.60;10.90;;;1.40;99.90;;;;;;5090205;28;20115;-63
2021/01/25 10:13:33;;;;;;;16.63;10.98;;;1.40;99.90;;;;;;5090984;28;20483;-63
2021/01/25 10:15:59;;;;;;;20.73;11.40;;;1.40;99.90;;;;;;5089964;28;20077;-72
2021/01/25 10:18:25;;;;;;;16.15;11.00;;;1.40;99.90;;;;;;5090434;28;20024;-63
2021/01/25 10:20:51;;;;;;;15.40;10.80;;;1.30;99.90;;;;;;5090713;28;20517;-63
2021/01/25 10:23:17;;;;;;;19.10;11.60;;;1.30;99.90;;;;;;5090027;28;20128;-63
2021/01/25 10:25:42;;;;;;;16.83;11.52;;;1.30;99.90;;;;;;5090850;28;20032;-63
2021/01/25 10:28:08;;;;;;;20.73;11.85;;;1.30;99.90;;;;;;5090224;28;20081;-63
2021/01/25 10:30:34;;;;;;;17.58;11.02;;;1.40;99.90;;;;;;5091219;28;20020;-63
2021/01/25 10:33:00;;;;;;;17.17;11.73;;;1.40;99.90;;;;;;5089680;28;20105;-63
2021/01/25 10:35:26;;;;;;;19.88;11.68;;;1.40;99.90;;;;;;5090807;28;20029;-63
2021/01/25 10:37:52;;;;;;;15.38;11.07;;;1.50;99.90;;;;;;5093138;28;20127;-63
2021/01/25 10:40:19;;;;;;;19.48;11.05;;;1.70;99.90;;;;;;5090217;28;20575;-63
2021/01/25 10:42:45;;;;;;;19.30;12.50;;;1.70;99.90;;;;;;5091025;28;20484;-63
2021/01/25 10:45:11;;;;;;;22.42;14.00;;;1.80;99.90;;;;;;5090273;28;20024;-63
2021/01/25 10:47:37;;;;;;;22.67;13.77;;;1.90;99.90;;;;;;5090840;28;20035;-63
2021/01/25 10:50:05;;;;;;;24.58;13.30;;;1.90;99.90;;;;;;5088912;28;20025;-64
2021/01/25 10:52:33;;;;;;;23.92;12.75;;;1.90;99.90;;;;;;5091085;28;20024;-63
2021/01/25 10:54:58;;;;;;;20.92;13.05;;;1.80;99.90;;;;;;5089987;28;20361;-66
2021/01/25 10:57:24;;;;;;;22.80;11.85;;;1.80;99.90;;;;;;5090618;28;20061;-63
2021/01/25 10:59:50;;;;;;;12.32;8.05;;;1.70;99.90;;;;;;5090789;28;20024;-64
2021/01/25 11:02:17;;;;;;;13.73;7.47;;;1.70;99.90;;;;;;5089879;28;20150;-63
2021/01/25 11:04:43;;;;;;;13.45;7.43;;;1.70;99.90;;;;;;5090412;28;20465;-63
2021/01/25 11:07:08;;;;;;;10.25;5.80;;;1.70;99.90;;;;;;5089481;28;20043;-63
2021/01/25 11:09:34;;;;;;;7.70;4.93;;;1.80;99.90;;;;;;5089700;28;20086;-63
2021/01/25 11:12:01;;;;;;;6.45;4.07;;;1.90;99.90;;;;;;5089440;28;20078;-64
2021/01/25 11:14:27;;;;;;;6.18;3.45;;;2.10;99.90;;;;;;5090128;28;20023;-63
2021/01/25 11:16:52;;;;;;;6.95;3.97;;;2.30;99.90;;;;;;5093721;28;20046;-64
2021/01/25 11:19:18;;;;;;;5.75;3.50;;;2.50;99.90;;;;;;5093209;28;20099;-63
2021/01/25 11:21:44;;;;;;;15.27;6.57;;;2.70;99.90;;;;;;5093984;28;20032;-63
2021/01/25 11:24:10;;;;;;;7.05;4.85;;;2.90;99.90;;;;;;5092922;28;20028;-62
2021/01/25 11:26:39;;;;;;;13.07;4.80;;;3.00;99.90;;;;;;5093574;28;20385;-64
2021/01/25 11:29:09;;;;;;;12.38;5.07;;;3.10;99.90;;;;;;5092053;28;20084;-64
2021/01/25 11:31:35;;;;;;;6.10;3.53;;;3.20;99.90;;;;;;5093192;28;20047;-63
2021/01/25 11:34:01;;;;;;;7.75;4.50;;;3.20;99.90;;;;;;5091568;28;20051;-64
2021/01/25 11:36:27;;;;;;;8.68;4.05;;;3.30;99.90;;;;;;5092228;28;20028;-64
2021/01/25 11:38:52;;;;;;;3.53;2.92;;;3.40;99.90;;;;;;5093896;28;20095;-63
2021/01/25 11:41:18;;;;;;;3.78;2.60;;;3.40;99.90;;;;;;5092414;28;20040;-64
2021/01/25 11:43:45;;;;;;;4.03;2.10;;;3.50;99.90;;;;;;5093584;28;20031;-62
2021/01/25 11:46:11;;;;;;;2.42;2.08;;;3.50;99.90;;;;;;5092432;28;20032;-63
2021/01/25 11:48:37;;;;;;;3.83;2.03;;;3.60;99.90;;;;;;5093193;28;20103;-61
2021/01/25 11:51:02;;;;;;;5.95;2.85;;;3.60;99.90;;;;;;5090576;28;20153;-63
2021/01/25 11:53:30;;;;;;;4.35;2.00;;;3.70;98.20;;;;;;5092987;28;20036;-63
2021/01/25 11:55:56;;;;;;;2.92;2.03;;;3.60;99.90;;;;;;5092555;28;20121;-65
2021/01/25 11:58:21;;;;;;;5.35;2.17;;;3.60;99.10;;;;;;5091898;28;20054;-64
2021/01/25 12:00:47;;;;;;;3.80;2.05;;;3.60;99.90;;;;;;5092833;28;20101;-63
2021/01/25 12:03:12;;;;;;;5.35;1.58;;;3.70;99.90;;;;;;5091913;28;20213;-64
2021/01/25 12:05:38;;;;;;;2.10;1.42;;;3.70;99.50;;;;;;5093183;28;20110;-63
2021/01/25 12:08:04;;;;;;;3.42;1.92;;;3.70;99.20;;;;;;5091852;28;20495;-60
2021/01/25 12:10:30;;;;;;;1.85;1.58;;;3.80;97.50;;;;;;5092544;28;20132;-61
2021/01/25 12:12:56;;;;;;;5.25;2.40;;;3.80;98.90;;;;;;5091702;28;20099;-62
2021/01/25 12:15:22;;;;;;;4.55;2.72;;;3.80;99.90;;;;;;5092867;28;20020;-60
2021/01/25 12:17:48;;;;;;;6.07;2.30;;;3.90;99.60;;;;;;5093017;28;20529;-63
2021/01/25 12:20:15;;;;;;;1.92;1.10;;;4.00;99.90;;;;;;5091886;28;20103;-61
2021/01/25 12:22:41;;;;;;;7.95;2.67;;;4.10;97.20;;;;;;5092258;28;20099;-61
2021/01/25 12:25:07;;;;;;;8.57;2.90;;;4.10;97.90;;;;;;5092005;28;20482;-64
2021/01/25 12:27:33;;;;;;;6.03;2.65;;;4.20;97.20;;;;;;5091503;28;20035;-62
2021/01/25 12:29:58;;;;;;;5.43;2.22;;;4.30;95.70;;;;;;5091712;28;20401;-62
2021/01/25 12:32:24;;;;;;;3.97;2.28;;;4.30;96.60;;;;;;5090048;28;20056;-70
2021/01/25 12:34:50;;;;;;;2.85;0.77;;;4.40;96.30;;;;;;5090392;28;20040;-71
2021/01/25 12:37:17;;;;;;;4.03;2.03;;;4.30;93.30;;;;;;5091940;28;20866;-68
2021/01/25 12:39:43;;;;;;;3.58;1.80;;;4.40;96.00;;;;;;5091497;28;20043;-65
2021/01/25 12:42:08;;;;;;;2.38;1.55;;;4.40;97.20;;;;;;5089784;28;20075;-68
2021/01/25 12:44:35;;;;;;;4.13;1.88;;;4.40;96.20;;;;;;5083464;28;20477;-69